• Join FlightAware (Why Join?)
  • Login
  • US Flag 
11:09AM EDT


 

Airport Tracker/Info


-or-


 

Live Flight TrackerFlight Track Log ✈ LXJ549 ✈ 02-Jul-2013 ✈ KBJC - KASE

Flight Track Log - Related Links

Times and Time Zones

All times are in EDT time to prevent confusion due to time zone crossing. See the LXJ549 flight status page for this flight to view local times or setup timezone preferences in your user account.

Time Position Orientation Groundspeed Altitude Reporting Facility
EDT Latitude Longitude Course Direction KTS MPH feet Rate Location/Type
07:21PM 39.9333 -105.1500 270° West 198 228 7,500  Level Denver TRACON
07:22PM 40.0000 -105.1667 349° North 249 287 10,800 3,420 Climbing Denver TRACON
07:23PM 40.0667 -105.2167 330° Northwest 295 339 14,400 2,520 Climbing Denver TRACON
07:24PM 40.0167 -105.3167 237° Southwest 348 400 15,900 720 Climbing Denver TRACON
07:25PM 39.9667 -105.4167 237° Southwest 336 387 15,900  Level Denver TRACON
07:27PM 39.6833 -105.6609 270° West  Level FlightAware Approximate
07:27PM 39.9467 -105.5600 260° West 334 384 16,000  Level Denver Center
07:28PM 39.9183 -105.6736 252° West 343 395 15,900 -60 Descending Denver Center
07:29PM 39.8764 -105.7775 242° Southwest 326 375 15,900  Level Denver Center
07:30PM 39.8314 -105.8914 243° Southwest 325 374 16,000  Climbing Denver Center
07:31PM 39.7872 -106.0050 243° Southwest 346 398 15,900  Descending Denver Center
07:32PM 39.7650 -106.1139 255° West 331 381 16,000  Climbing Denver Center
07:33PM 39.7544 -106.2169 262° West 324 373 15,900 -120 Descending Denver Center
07:34PM 39.7381 -106.3308 259° West 323 372 15,800 -60 Descending Denver Center
07:35PM 39.7478 -106.4756 275° West 331 381 15,800  Level Denver Center
07:36PM 39.7347 -106.5833 261° West 322 371 15,900  Climbing Denver Center
07:37PM 39.6536 -106.6761 221° Southwest 358 412 15,900  Level Denver Center
07:38PM 39.5761 -106.7556 218° Southwest 369 425 15,900  Level Denver Center
07:39PM 39.4839 -106.8475 218° Southwest 374 430 15,900 -1,020 Level Denver Center
07:40PM 39.4111 -106.9264 220° Southwest 359 413 13,900 -2,160 Descending Denver Center
07:41PM 39.3408 -106.9675 204° Southwest 331 381 11,500 -2,220 Descending Denver Center
07:42PM 39.3025 -106.8997 126° Southeast 268 308 9,400 -2,040 Descending Denver Center
07:44PM 39.2167 -106.8667 176° South  Level FlightAware Approximate